Time;durP1;ratioP1;P1;durP2;ratioP2;P2;SDS_P1;SDS_P2;PMS_P1;PMS_P2;Temp;Humidity;BMP_temperature;BMP_pressure;BME280_temperature;BME280_humidity;BME280_pressure;Samples;Min_cycle;Max_cycle;Signal;HPM_P1;HPM_P2
2023/01/03 00:00:35;;;;;;;4.75;1.50;;;9.10;99.90;;;;;;5058602;28;20037;-68
2023/01/03 00:03:01;;;;;;;3.47;1.20;;;9.10;99.90;;;;;;5058540;28;20389;-68
2023/01/03 00:05:27;;;;;;;5.80;1.33;;;9.10;99.90;;;;;;5058750;28;20033;-68
2023/01/03 00:07:53;;;;;;;6.22;1.48;;;9.20;99.90;;;;;;5050581;28;20035;-68
2023/01/03 00:10:19;;;;;;;3.15;1.00;;;9.10;99.90;;;;;;5062131;28;20017;-68
2023/01/03 00:12:44;;;;;;;2.50;1.10;;;9.10;99.90;;;;;;5058629;28;20055;-68
2023/01/03 00:15:14;;;;;;;2.85;1.10;;;9.10;99.90;;;;;;5058528;28;20031;-68
2023/01/03 00:17:40;;;;;;;2.67;1.23;;;9.20;99.90;;;;;;5040361;28;20025;-68
2023/01/03 00:20:07;;;;;;;2.30;0.90;;;9.10;99.90;;;;;;5058335;28;20108;-68
2023/01/03 00:22:33;;;;;;;2.80;0.90;;;9.10;99.90;;;;;;5057417;28;20028;-68
2023/01/03 00:24:58;;;;;;;1.85;0.82;;;9.10;99.90;;;;;;5055428;28;20027;-68
2023/01/03 00:27:24;;;;;;;2.42;0.88;;;9.10;99.90;;;;;;5039965;28;20117;-69
2023/01/03 00:29:50;;;;;;;2.40;0.93;;;9.10;99.90;;;;;;5060225;28;20500;-68
2023/01/03 00:32:15;;;;;;;3.42;1.17;;;9.10;99.90;;;;;;5062966;28;20468;-68
2023/01/03 00:34:44;;;;;;;3.58;1.25;;;9.10;99.90;;;;;;5057843;28;20079;-68
2023/01/03 00:37:09;;;;;;;4.13;1.10;;;9.10;99.90;;;;;;5057702;28;20447;-68
2023/01/03 00:39:35;;;;;;;2.72;0.73;;;9.10;99.90;;;;;;5057959;28;20029;-68
2023/01/03 00:42:01;;;;;;;2.35;1.00;;;9.00;99.90;;;;;;5058907;28;20542;-68
2023/01/03 00:44:27;;;;;;;2.67;1.30;;;9.00;99.90;;;;;;5057724;28;20032;-68
2023/01/03 00:46:52;;;;;;;3.92;0.95;;;9.00;99.90;;;;;;5056899;28;20025;-68
2023/01/03 00:49:18;;;;;;;4.03;1.00;;;9.00;99.90;;;;;;5057662;28;20029;-68
2023/01/03 00:51:44;;;;;;;3.78;0.98;;;8.90;99.90;;;;;;5046861;28;20030;-68
2023/01/03 00:54:12;;;;;;;3.20;1.10;;;8.90;99.90;;;;;;5057761;28;20112;-68
2023/01/03 00:56:42;;;;;;;2.13;0.90;;;9.00;99.90;;;;;;5040434;28;20404;-68
2023/01/03 00:59:08;;;;;;;2.85;1.00;;;9.00;99.90;;;;;;5056751;28;20025;-68
2023/01/03 01:01:43;;;;;;;1.98;0.82;;;9.00;99.90;;;;;;5039325;28;20032;-68
2023/01/03 01:04:13;;;;;;;4.55;1.42;;;9.00;99.90;;;;;;5056438;28;20032;-68
2023/01/03 01:06:42;;;;;;;2.95;0.88;;;8.90;99.90;;;;;;5039634;28;20020;-68
2023/01/03 01:09:11;;;;;;;3.33;1.20;;;8.90;99.90;;;;;;5063896;28;20020;-68
2023/01/03 01:11:37;;;;;;;3.72;1.27;;;8.90;99.90;;;;;;5065805;28;20152;-68
2023/01/03 01:14:18;;;;;;;3.17;0.77;;;8.90;99.90;;;;;;5057131;28;20107;-68
2023/01/03 01:16:45;;;;;;;3.67;0.80;;;8.90;99.90;;;;;;5057358;28;20478;-68
2023/01/03 01:19:11;;;;;;;3.00;0.80;;;8.90;99.90;;;;;;5056984;28;20036;-68
2023/01/03 01:21:37;;;;;;;3.55;0.90;;;8.90;99.90;;;;;;5057363;28;20025;-68
2023/01/03 01:24:02;;;;;;;2.65;1.13;;;8.90;99.90;;;;;;5051450;28;20953;-68
2023/01/03 01:26:28;;;;;;;2.22;1.13;;;8.90;99.90;;;;;;5057329;28;20057;-68
2023/01/03 01:28:54;;;;;;;5.68;1.30;;;8.90;99.90;;;;;;5038997;28;20021;-68
2023/01/03 01:31:24;;;;;;;2.65;0.95;;;8.90;99.90;;;;;;5056757;28;20021;-67
2023/01/03 01:33:50;;;;;;;2.70;1.00;;;8.90;99.90;;;;;;5056375;28;20564;-68
2023/01/03 01:36:19;;;;;;;3.72;1.00;;;8.90;99.90;;;;;;5039727;28;20513;-68
2023/01/03 01:38:46;;;;;;;3.17;1.00;;;8.90;99.90;;;;;;5050438;28;20089;-68
2023/01/03 01:44:36;;;;;;;3.05;0.80;;;8.80;99.90;;;;;;5057053;28;20528;-68
2023/01/03 01:46:46;;;;;;;1.92;0.90;;;8.80;99.90;;;;;;5056372;28;20028;-68
2023/01/03 01:49:19;;;;;;;2.17;0.82;;;8.80;99.90;;;;;;5039104;28;20175;-68
2023/01/03 01:51:45;;;;;;;2.97;0.88;;;8.80;99.90;;;;;;5056189;28;20020;-68
2023/01/03 01:54:11;;;;;;;2.60;0.70;;;8.80;99.90;;;;;;5057102;28;20037;-68
2023/01/03 01:56:44;;;;;;;1.83;0.70;;;8.70;99.90;;;;;;5038404;28;20021;-68
2023/01/03 01:59:11;;;;;;;3.05;0.90;;;8.70;99.90;;;;;;5056807;28;20518;-68
2023/01/03 02:01:40;;;;;;;2.45;0.80;;;8.70;99.90;;;;;;5056247;28;20067;-68
2023/01/03 02:04:20;;;;;;;1.75;0.95;;;8.70;99.90;;;;;;5056362;28;20029;-68
2023/01/03 02:06:46;;;;;;;2.38;0.90;;;8.70;99.90;;;;;;5038318;28;20020;-68
2023/01/03 02:09:12;;;;;;;2.10;0.63;;;8.70;99.90;;;;;;5061651;28;20029;-68
2023/01/03 02:11:43;;;;;;;1.77;0.75;;;8.60;99.90;;;;;;5056616;28;20143;-67
2023/01/03 02:14:20;;;;;;;2.20;0.80;;;8.60;99.90;;;;;;5059223;28;20435;-68
2023/01/03 02:17:28;;;;;;;1.20;0.52;;;8.70;99.90;;;;;;5042996;28;20151;-68
2023/01/03 02:20:04;;;;;;;1.40;0.50;;;8.70;99.90;;;;;;5028439;28;20041;-68
2023/01/03 02:22:57;;;;;;;1.20;0.50;;;8.70;99.90;;;;;;5055956;28;20025;-68
2023/01/03 02:25:58;;;;;;;2.47;0.82;;;8.70;99.90;;;;;;5038578;28;20021;-68
2023/01/03 02:29:01;;;;;;;2.35;0.63;;;8.60;99.90;;;;;;5056699;28;20029;-68
2023/01/03 02:31:34;;;;;;;1.10;0.60;;;8.60;99.90;;;;;;5056076;28;20021;-68
2023/01/03 02:34:02;;;;;;;1.80;0.60;;;8.60;99.90;;;;;;5056185;28;20025;-68
2023/01/03 02:36:34;;;;;;;3.15;0.68;;;8.60;99.90;;;;;;5038646;28;20055;-68
2023/01/03 02:39:09;;;;;;;2.08;0.70;;;8.60;99.90;;;;;;5056375;28;20025;-68
2023/01/03 02:41:44;;;;;;;1.50;0.50;;;8.60;99.90;;;;;;5055831;28;20037;-68
2023/01/03 02:44:16;;;;;;;2.42;0.70;;;8.60;99.90;;;;;;5057431;28;20025;-68
2023/01/03 02:46:57;;;;;;;2.13;0.68;;;8.60;99.90;;;;;;5037915;28;20021;-68
2023/01/03 02:49:40;;;;;;;2.45;0.80;;;8.50;99.90;;;;;;5065696;28;20492;-68
2023/01/03 02:52:11;;;;;;;1.13;0.70;;;8.40;99.90;;;;;;5037452;28;20025;-68
2023/01/03 02:54:48;;;;;;;2.33;0.63;;;8.40;99.90;;;;;;5060070;28;20040;-68
2023/01/03 02:57:23;;;;;;;2.90;0.82;;;8.50;99.90;;;;;;5062649;28;20036;-68
2023/01/03 02:59:56;;;;;;;2.05;0.60;;;8.40;99.90;;;;;;5065863;28;20025;-68
2023/01/03 03:02:23;;;;;;;;;;;8.40;99.90;;;;;;5060054;28;20543;-68
2023/01/03 03:04:53;;;;;;;1.40;0.80;;;8.40;99.90;;;;;;5059368;28;19935;-68
2023/01/03 03:07:26;;;;;;;2.53;0.90;;;8.40;99.90;;;;;;5059259;28;20029;-68
2023/01/03 03:15:34;;;;;;;2.67;0.88;;;8.30;99.90;;;;;;5058943;28;20027;-68
2023/01/03 03:18:15;;;;;;;2.72;0.77;;;8.20;99.90;;;;;;5058844;28;20021;-68
2023/01/03 03:26:18;;;;;;;2.95;0.90;;;8.30;99.90;;;;;;5059084;28;20024;-68
2023/01/03 03:28:48;;;;;;;1.10;0.50;;;8.20;99.90;;;;;;5059034;28;20120;-68
2023/01/03 03:31:16;;;;;;;2.47;0.57;;;8.20;99.90;;;;;;5058823;28;20104;-68
2023/01/03 03:33:45;;;;;;;3.92;0.88;;;8.20;99.90;;;;;;5058848;28;20505;-68
2023/01/03 03:36:25;;;;;;;3.53;0.68;;;8.20;99.90;;;;;;5058008;28;20524;-68
2023/01/03 03:38:51;;;;;;;2.10;0.80;;;8.10;99.90;;;;;;5041055;28;20082;-68
2023/01/03 03:47:58;;;;;;;2.05;0.50;;;8.00;99.90;;;;;;5058333;28;20063;-68
2023/01/03 03:50:30;;;;;;;2.35;0.63;;;8.00;99.90;;;;;;5058943;28;20037;-68
2023/01/03 03:53:00;;;;;;;2.05;0.63;;;8.00;99.90;;;;;;5040680;28;20509;-68
2023/01/03 03:55:48;;;;;;;2.35;0.60;;;8.00;99.90;;;;;;5058628;28;20033;-68
2023/01/03 03:58:19;;;;;;;3.28;0.80;;;7.90;99.90;;;;;;5058492;28;20032;-68
2023/01/03 04:00:47;;;;;;;2.25;0.50;;;7.90;99.90;;;;;;5058629;28;20044;-68
2023/01/03 04:03:14;;;;;;;3.35;0.70;;;7.90;99.90;;;;;;5058095;28;20029;-68
2023/01/03 04:05:46;;;;;;;1.80;0.52;;;7.90;99.90;;;;;;5058221;28;20044;-68
2023/01/03 04:08:11;;;;;;;1.98;0.40;;;8.00;99.90;;;;;;5057132;28;20539;-68
2023/01/03 04:10:37;;;;;;;1.83;0.80;;;8.00;99.90;;;;;;5062598;28;20045;-68
2023/01/03 04:13:03;;;;;;;1.35;0.63;;;8.00;99.90;;;;;;5040427;28;20036;-68
2023/01/03 04:15:28;;;;;;;2.10;0.70;;;8.00;99.90;;;;;;5058561;28;20458;-68
2023/01/03 04:17:55;;;;;;;3.13;0.80;;;8.00;99.90;;;;;;5057806;28;20053;-68
2023/01/03 04:20:21;;;;;;;1.33;0.55;;;7.90;99.90;;;;;;5040224;28;20086;-68
2023/01/03 04:22:46;;;;;;;2.03;0.52;;;7.90;99.90;;;;;;5057385;28;20033;-68
2023/01/03 04:25:12;;;;;;;2.45;0.77;;;7.90;99.90;;;;;;5058163;28;20489;-68
2023/01/03 04:27:37;;;;;;;2.60;0.77;;;7.90;99.90;;;;;;5057525;28;20032;-68
2023/01/03 04:30:04;;;;;;;1.65;0.60;;;7.80;99.90;;;;;;5040257;28;20017;-68
2023/01/03 04:32:30;;;;;;;2.63;0.90;;;7.90;99.90;;;;;;5039883;28;20570;-68
2023/01/03 04:34:55;;;;;;;1.13;0.40;;;7.80;99.90;;;;;;5057597;28;20108;-68
2023/01/03 04:37:21;;;;;;;2.50;0.63;;;7.80;99.90;;;;;;5057341;28;20035;-68
2023/01/03 04:39:47;;;;;;;1.75;0.60;;;7.80;99.90;;;;;;5058031;28;20028;-68
2023/01/03 04:44:57;;;;;;;1.35;0.63;;;7.80;99.90;;;;;;5057517;28;20443;-68
2023/01/03 04:47:22;;;;;;;1.67;0.77;;;7.70;99.90;;;;;;5057666;28;20028;-68
2023/01/03 04:49:48;;;;;;;1.55;0.50;;;7.80;99.90;;;;;;5057531;28;20405;-67
2023/01/03 04:52:14;;;;;;;0.95;0.45;;;7.80;99.90;;;;;;5056963;28;20060;-68
2023/01/03 04:54:41;;;;;;;2.30;0.60;;;7.80;99.90;;;;;;5057380;28;20059;-68
2023/01/03 04:57:06;;;;;;;1.50;0.60;;;7.80;99.90;;;;;;5057383;28;20029;-68
2023/01/03 04:59:32;;;;;;;1.30;0.40;;;7.70;99.90;;;;;;5057451;28;20028;-68
2023/01/03 05:01:58;;;;;;;2.53;0.77;;;7.70;99.90;;;;;;5056841;28;20040;-68
2023/01/03 05:04:23;;;;;;;3.92;0.80;;;7.70;99.90;;;;;;5057245;28;20036;-68
2023/01/03 05:06:52;;;;;;;1.83;0.65;;;7.80;99.90;;;;;;5056544;28;20032;-67
2023/01/03 05:09:17;;;;;;;1.45;0.63;;;7.80;99.90;;;;;;5064836;28;20432;-67
2023/01/03 05:11:43;;;;;;;1.63;0.68;;;7.80;99.90;;;;;;5041276;28;20045;-68
2023/01/03 05:14:09;;;;;;;2.47;0.82;;;7.80;99.90;;;;;;5057524;28;20493;-68
2023/01/03 05:16:34;;;;;;;0.95;0.50;;;7.80;99.90;;;;;;5057279;28;20067;-68
2023/01/03 05:19:00;;;;;;;1.38;0.65;;;7.80;99.90;;;;;;5057121;28;20029;-68
2023/01/03 05:26:56;;;;;;;3.28;0.68;;;7.80;99.90;;;;;;5057012;28;20067;-68
2023/01/03 05:29:22;;;;;;;1.85;0.60;;;7.80;99.90;;;;;;5056339;28;20083;-68
2023/01/03 05:31:48;;;;;;;3.67;0.77;;;7.80;99.90;;;;;;5062335;28;20021;-68
2023/01/03 05:34:13;;;;;;;2.20;0.47;;;7.80;99.90;;;;;;5042572;28;20043;-68
2023/01/03 05:36:39;;;;;;;1.65;0.75;;;7.80;99.90;;;;;;5057332;28;20532;-68
2023/01/03 05:39:05;;;;;;;2.30;0.70;;;7.80;99.90;;;;;;5057241;28;20147;-68
2023/01/03 05:44:16;;;;;;;2.00;0.65;;;7.70;99.90;;;;;;5057254;28;20119;-67
2023/01/03 05:46:41;;;;;;;2.70;0.63;;;7.70;99.90;;;;;;5056439;28;20099;-68
2023/01/03 05:49:07;;;;;;;1.88;0.70;;;7.70;99.90;;;;;;5064589;28;20103;-67
2023/01/03 05:51:33;;;;;;;2.00;0.40;;;7.70;99.90;;;;;;5039034;28;20055;-68
2023/01/03 05:53:59;;;;;;;3.08;0.80;;;7.80;99.90;;;;;;5056861;28;20104;-68
2023/01/03 05:56:25;;;;;;;1.92;0.57;;;7.80;99.90;;;;;;5056911;28;20057;-68
2023/01/03 05:58:50;;;;;;;2.33;0.90;;;7.80;99.90;;;;;;5056703;28;20544;-67
2023/01/03 06:01:16;;;;;;;2.03;0.52;;;7.80;99.90;;;;;;5038408;28;20033;-68
2023/01/03 06:03:44;;;;;;;2.67;0.73;;;7.80;99.90;;;;;;5055443;28;20013;-67
2023/01/03 06:06:10;;;;;;;1.55;0.60;;;7.90;99.90;;;;;;5056305;28;20025;-68
2023/01/03 06:08:36;;;;;;;1.98;0.43;;;7.90;99.90;;;;;;5038269;28;20175;-68
2023/01/03 06:11:06;;;;;;;2.28;0.73;;;7.90;99.90;;;;;;5056194;28;20081;-68
2023/01/03 06:13:32;;;;;;;1.27;0.50;;;7.90;99.90;;;;;;5039037;28;20036;-68
2023/01/03 06:19:03;;;;;;;2.05;0.50;;;7.90;99.90;;;;;;5056462;28;20040;-68
2023/01/03 06:21:29;;;;;;;2.17;0.95;;;8.00;99.90;;;;;;5056289;28;20409;-68
2023/01/03 06:23:55;;;;;;;3.17;0.80;;;7.90;99.90;;;;;;5056388;28;20033;-68
2023/01/03 06:26:22;;;;;;;2.08;0.80;;;7.90;99.90;;;;;;5037907;28;20044;-68
2023/01/03 06:28:48;;;;;;;2.40;0.70;;;7.90;99.90;;;;;;5055904;28;20053;-68
2023/01/03 06:31:14;;;;;;;4.72;1.02;;;8.00;99.90;;;;;;5070604;28;20056;-68
2023/01/03 06:33:40;;;;;;;2.33;0.75;;;8.00;99.90;;;;;;5063501;28;20032;-68
2023/01/03 06:36:08;;;;;;;1.92;0.80;;;8.00;99.90;;;;;;5061646;28;20049;-68
2023/01/03 06:38:35;;;;;;;4.70;1.00;;;8.00;99.90;;;;;;5067981;28;20025;-68
2023/01/03 06:41:00;;;;;;;2.50;0.88;;;7.90;99.90;;;;;;5042171;28;20017;-68
2023/01/03 06:43:26;;;;;;;1.65;0.68;;;7.90;99.90;;;;;;5060151;28;20032;-68
2023/01/03 06:54:31;;;;;;;1.88;0.73;;;7.90;99.90;;;;;;5060127;28;20056;-68
2023/01/03 06:56:57;;;;;;;2.92;0.80;;;7.90;99.90;;;;;;5059992;28;20024;-68
2023/01/03 06:59:23;;;;;;;1.65;0.75;;;7.90;99.90;;;;;;5059805;28;20024;-68
2023/01/03 07:01:50;;;;;;;2.97;1.48;;;7.90;99.90;;;;;;5059660;28;20064;-68
2023/01/03 07:04:16;;;;;;;3.20;0.82;;;7.90;99.90;;;;;;5041620;28;20035;-68
2023/01/03 07:06:43;;;;;;;2.60;0.70;;;7.90;99.90;;;;;;5041406;28;20029;-68
2023/01/03 07:09:09;;;;;;;1.30;0.60;;;7.90;99.90;;;;;;5059858;28;20075;-68
2023/01/03 07:11:35;;;;;;;2.33;0.60;;;7.90;99.90;;;;;;5058650;28;20029;-68
2023/01/03 07:14:02;;;;;;;1.55;0.60;;;7.90;99.90;;;;;;5059338;28;20083;-68
2023/01/03 07:16:33;;;;;;;2.33;0.73;;;7.90;99.90;;;;;;5066980;28;20017;-68
2023/01/03 07:18:59;;;;;;;3.38;0.70;;;7.90;99.90;;;;;;5059050;28;20086;-68
2023/01/03 07:21:27;;;;;;;2.97;0.80;;;7.90;99.90;;;;;;5058761;28;20099;-68
2023/01/03 07:23:55;;;;;;;4.38;1.60;;;7.90;99.90;;;;;;5059259;28;20028;-67
2023/01/03 07:26:23;;;;;;;3.58;0.90;;;7.90;99.90;;;;;;5059002;28;20017;-68
2023/01/03 07:28:48;;;;;;;3.85;1.10;;;7.90;99.90;;;;;;5058746;28;20051;-68
2023/01/03 07:31:14;;;;;;;2.67;1.08;;;7.80;99.90;;;;;;5023664;28;20120;-68
2023/01/03 07:33:40;;;;;;;2.60;0.70;;;7.90;99.90;;;;;;5040607;28;20377;-68
2023/01/03 07:36:09;;;;;;;2.20;0.65;;;7.90;99.90;;;;;;5058462;28;20655;-68
2023/01/03 07:38:35;;;;;;;3.10;0.88;;;7.90;99.90;;;;;;5058858;28;20036;-68
2023/01/03 07:41:03;;;;;;;3.60;1.10;;;7.90;99.90;;;;;;5040362;28;20048;-68
2023/01/03 07:43:38;;;;;;;2.17;0.80;;;7.90;99.90;;;;;;5065553;28;20028;-68
2023/01/03 07:46:23;;;;;;;1.42;0.60;;;8.00;99.90;;;;;;5065038;28;20392;-68
2023/01/03 07:48:51;;;;;;;2.33;0.70;;;8.00;99.90;;;;;;5043200;28;20614;-68
2023/01/03 07:51:20;;;;;;;2.63;0.68;;;8.00;99.90;;;;;;5048301;28;20025;-69
2023/01/03 07:53:49;;;;;;;2.05;0.80;;;8.00;99.90;;;;;;5070523;28;20425;-68
2023/01/03 07:56:18;;;;;;;2.97;0.70;;;8.00;99.90;;;;;;5058557;28;20020;-69
2023/01/03 07:58:45;;;;;;;4.72;0.98;;;8.00;99.90;;;;;;5042138;28;20025;-68
2023/01/03 08:01:19;;;;;;;1.38;0.90;;;8.00;99.90;;;;;;5058526;28;20392;-68
2023/01/03 08:03:45;;;;;;;3.08;1.00;;;8.00;99.90;;;;;;5056923;28;20509;-68
2023/01/03 08:06:13;;;;;;;2.85;1.00;;;8.00;99.90;;;;;;5042282;28;20090;-68
2023/01/03 08:08:39;;;;;;;2.92;0.85;;;8.00;99.90;;;;;;5069900;28;20051;-68
2023/01/03 08:13:50;;;;;;;3.28;1.00;;;8.00;99.90;;;;;;5062409;28;20112;-68
2023/01/03 08:16:17;;;;;;;5.13;1.10;;;8.10;99.90;;;;;;5058107;28;20045;-68
2023/01/03 08:18:44;;;;;;;2.75;0.90;;;8.10;99.90;;;;;;5044037;28;20385;-68
2023/01/03 08:21:11;;;;;;;1.63;0.80;;;8.10;99.90;;;;;;5045731;28;20029;-67
2023/01/03 08:23:37;;;;;;;2.42;1.00;;;8.10;99.90;;;;;;5058013;28;20496;-68
2023/01/03 08:26:09;;;;;;;2.40;0.90;;;8.20;99.90;;;;;;5057837;28;20017;-67
2023/01/03 08:28:35;;;;;;;3.20;0.90;;;8.20;99.90;;;;;;5047043;28;20095;-68
2023/01/03 08:31:07;;;;;;;2.63;0.90;;;8.20;99.90;;;;;;5061711;28;20040;-68
2023/01/03 08:33:42;;;;;;;2.97;0.82;;;8.30;99.90;;;;;;5023979;28;20116;-68
2023/01/03 08:36:10;;;;;;;2.45;0.80;;;8.30;99.90;;;;;;5041745;28;20021;-68
2023/01/03 08:38:41;;;;;;;4.53;1.00;;;8.40;99.90;;;;;;5057814;28;20029;-68
2023/01/03 08:41:08;;;;;;;2.85;0.85;;;8.40;99.90;;;;;;5057924;28;20033;-68
2023/01/03 08:43:36;;;;;;;4.03;1.25;;;8.50;99.90;;;;;;5057419;28;20037;-68
2023/01/03 08:46:04;;;;;;;2.67;0.88;;;8.50;99.90;;;;;;5039295;28;20025;-68
2023/01/03 08:48:30;;;;;;;3.00;1.10;;;8.50;99.90;;;;;;5039453;28;20112;-68
2023/01/03 08:50:55;;;;;;;4.60;0.65;;;8.60;99.90;;;;;;5038979;28;20075;-68
2023/01/03 08:53:23;;;;;;;3.17;0.70;;;8.60;99.90;;;;;;5057622;28;20061;-68
2023/01/03 08:55:49;;;;;;;2.90;0.80;;;8.70;99.90;;;;;;5039715;28;20116;-68
2023/01/03 08:58:14;;;;;;;3.60;0.68;;;8.70;99.90;;;;;;5057706;28;20053;-68
2023/01/03 09:00:40;;;;;;;2.83;1.00;;;8.70;99.90;;;;;;5057438;28;20024;-68
2023/01/03 09:03:06;;;;;;;2.17;1.10;;;8.80;99.90;;;;;;5057240;28;20401;-68
2023/01/03 09:05:31;;;;;;;5.13;1.05;;;8.80;99.90;;;;;;5057435;28;20087;-68
2023/01/03 09:07:57;;;;;;;6.00;1.35;;;8.80;99.90;;;;;;5039667;28;20400;-68
2023/01/03 09:10:23;;;;;;;4.88;1.05;;;8.90;99.90;;;;;;5067506;28;20392;-68
2023/01/03 09:12:49;;;;;;;4.28;1.08;;;8.90;99.90;;;;;;5057376;28;20505;-68
2023/01/03 09:15:15;;;;;;;3.78;1.00;;;9.00;99.90;;;;;;5056358;28;20032;-68
2023/01/03 09:17:44;;;;;;;2.00;0.65;;;9.00;99.90;;;;;;5057736;28;20458;-67
2023/01/03 09:20:11;;;;;;;4.15;0.90;;;9.10;99.90;;;;;;5038291;28;20032;-68
2023/01/03 09:22:37;;;;;;;4.00;1.05;;;9.20;99.90;;;;;;5069817;28;20056;-68
2023/01/03 09:25:03;;;;;;;4.07;1.20;;;9.20;99.90;;;;;;5039047;28;20052;-68
2023/01/03 09:27:28;;;;;;;5.00;1.23;;;9.30;99.90;;;;;;5056787;28;20029;-67
2023/01/03 09:29:54;;;;;;;2.63;0.80;;;9.30;99.90;;;;;;5057109;28;20028;-68
2023/01/03 09:32:20;;;;;;;2.45;0.98;;;9.40;99.90;;;;;;5057067;28;20025;-68
2023/01/03 09:34:45;;;;;;;2.03;0.68;;;9.40;99.90;;;;;;5039095;28;20032;-67
2023/01/03 09:37:11;;;;;;;4.03;0.95;;;9.50;99.90;;;;;;5056747;28;20108;-68
2023/01/03 09:39:39;;;;;;;3.35;1.02;;;9.50;99.90;;;;;;5039080;28;20032;-68
2023/01/03 09:44:51;;;;;;;3.22;0.93;;;9.60;99.90;;;;;;5057101;28;20032;-67
2023/01/03 09:47:26;;;;;;;5.50;1.10;;;9.70;99.90;;;;;;5056768;28;20100;-68
2023/01/03 09:49:53;;;;;;;4.78;0.80;;;9.70;99.90;;;;;;5056683;28;20021;-68
2023/01/03 10:05:04;;;;;;;3.08;0.85;;;9.80;99.90;;;;;;4994718;28;20395;-67
2023/01/03 10:07:52;;;;;;;2.90;0.82;;;9.90;99.90;;;;;;5042868;28;20025;-67
2023/01/03 10:10:50;;;;;;;3.83;1.02;;;9.90;99.90;;;;;;5042866;28;20025;-68
2023/01/03 10:13:21;;;;;;;3.60;0.88;;;9.90;99.90;;;;;;5042398;28;20040;-68
2023/01/03 10:16:09;;;;;;;2.40;0.68;;;10.00;99.90;;;;;;5060944;28;20028;-67
2023/01/03 10:18:47;;;;;;;2.35;0.90;;;10.00;99.90;;;;;;5042657;28;20052;-68
2023/01/03 10:21:38;;;;;;;1.92;0.60;;;10.10;99.90;;;;;;5042469;28;20033;-68
2023/01/03 10:24:17;;;;;;;7.10;1.08;;;10.10;99.90;;;;;;5060138;28;20034;-67
2023/01/03 10:26:42;;;;;;;2.00;0.60;;;10.20;99.90;;;;;;5060442;28;20481;-68
2023/01/03 10:29:09;;;;;;;3.05;0.88;;;10.20;99.90;;;;;;5042771;28;20021;-68
2023/01/03 10:32:03;;;;;;;3.33;0.98;;;10.30;99.90;;;;;;5042230;28;20025;-68
2023/01/03 10:34:28;;;;;;;;;;;10.30;99.90;;;;;;5060698;28;20025;-67
2023/01/03 10:36:54;;;;;;;2.80;0.65;;;10.40;99.90;;;;;;5059746;28;19984;-68
2023/01/03 10:39:30;;;;;;;5.00;0.75;;;10.50;99.90;;;;;;5039390;28;20045;-68
2023/01/03 10:41:58;;;;;;;2.75;0.75;;;10.50;99.90;;;;;;5048610;28;20389;-68
2023/01/03 10:44:29;;;;;;;4.72;1.05;;;10.60;99.90;;;;;;5063996;28;20493;-67
2023/01/03 10:46:57;;;;;;;4.32;1.27;;;10.70;99.90;;;;;;5047308;28;20017;-67
2023/01/03 10:49:26;;;;;;;2.83;1.00;;;10.80;99.90;;;;;;5058145;28;20128;-67
2023/01/03 10:52:03;;;;;;;4.90;0.82;;;10.80;99.90;;;;;;5059054;28;20104;-68
2023/01/03 10:54:41;;;;;;;5.25;0.75;;;10.90;99.90;;;;;;5041269;28;20032;-67
2023/01/03 10:57:07;;;;;;;3.58;0.70;;;10.90;99.90;;;;;;5059194;28;20114;-68
2023/01/03 10:59:33;;;;;;;6.30;1.13;;;11.00;99.90;;;;;;5053131;28;20028;-68
2023/01/03 11:02:07;;;;;;;6.60;1.20;;;11.10;99.90;;;;;;5059277;28;20109;-68
2023/01/03 11:04:34;;;;;;;5.70;1.05;;;11.10;99.90;;;;;;5059119;28;20029;-67
2023/01/03 11:07:12;;;;;;;5.60;1.00;;;11.20;99.90;;;;;;5059083;28;20025;-67
2023/01/03 11:09:57;;;;;;;4.50;1.00;;;11.20;99.90;;;;;;5041337;28;20079;-67
2023/01/03 11:12:37;;;;;;;2.40;0.80;;;11.30;99.90;;;;;;5058050;28;20037;-69
2023/01/03 11:15:22;;;;;;;5.90;1.30;;;11.30;99.90;;;;;;5058585;28;20465;-67
2023/01/03 11:17:57;;;;;;;5.38;0.90;;;11.40;99.90;;;;;;5040607;28;20439;-67
2023/01/03 11:20:34;;;;;;;4.20;1.00;;;11.40;99.90;;;;;;5058546;28;20033;-67
2023/01/03 11:23:07;;;;;;;5.20;1.63;;;11.40;99.90;;;;;;5064975;28;20037;-68
2023/01/03 11:25:51;;;;;;;2.75;0.93;;;11.50;99.90;;;;;;5059010;28;20108;-68
2023/01/03 11:29:05;;;;;;;4.10;1.15;;;11.50;99.90;;;;;;5063226;28;20024;-68
2023/01/03 11:31:50;;;;;;;3.75;1.02;;;11.50;99.90;;;;;;5008302;28;20069;-67
2023/01/03 11:34:57;;;;;;;5.72;1.42;;;11.60;99.90;;;;;;5040844;28;20047;-67
2023/01/03 11:38:00;;;;;;;4.88;1.17;;;11.60;99.90;;;;;;5031811;28;20041;-67
2023/01/03 11:40:28;;;;;;;4.93;1.48;;;11.60;99.90;;;;;;5031558;28;20055;-68
2023/01/03 11:43:29;;;;;;;6.47;1.25;;;11.60;99.90;;;;;;5040426;28;20032;-68
2023/01/03 11:46:14;;;;;;;6.35;1.33;;;11.60;99.90;;;;;;5028065;28;20020;-69
2023/01/03 11:48:51;;;;;;;3.13;0.80;;;11.60;99.90;;;;;;5071242;28;20033;-68
2023/01/03 11:51:32;;;;;;;4.10;0.85;;;11.70;99.90;;;;;;5043023;28;20020;-68
2023/01/03 11:54:07;;;;;;;5.40;1.17;;;11.70;99.90;;;;;;5062646;28;20484;-68
2023/01/03 11:56:38;;;;;;;3.35;1.15;;;11.70;99.90;;;;;;5060395;28;20457;-68
2023/01/03 11:59:49;;;;;;;4.03;0.93;;;11.70;99.90;;;;;;5040304;28;20025;-68
2023/01/03 12:02:30;;;;;;;3.97;0.95;;;11.70;99.90;;;;;;5026050;28;20102;-68
2023/01/03 12:05:04;;;;;;;3.22;0.90;;;11.70;99.90;;;;;;5057687;28;20033;-68
2023/01/03 12:07:56;;;;;;;2.38;0.88;;;11.70;99.90;;;;;;5068917;28;20115;-68
2023/01/03 12:10:46;;;;;;;4.22;0.73;;;11.80;99.90;;;;;;5061461;28;20436;-68
2023/01/03 12:14:00;;;;;;;3.85;0.70;;;11.80;99.90;;;;;;5039640;28;20032;-68
2023/01/03 12:16:53;;;;;;;2.10;0.73;;;11.80;99.90;;;;;;5056106;28;20033;-68
2023/01/03 12:19:42;;;;;;;1.80;0.52;;;11.90;99.90;;;;;;5073517;28;20031;-68
2023/01/03 12:22:33;;;;;;;5.35;0.88;;;11.90;99.90;;;;;;5068867;28;20037;-67
2023/01/03 12:25:14;;;;;;;4.10;0.77;;;11.90;99.90;;;;;;5057390;28;20028;-68
2023/01/03 12:27:49;;;;;;;3.03;0.70;;;12.00;99.90;;;;;;5056302;28;20039;-67
2023/01/03 12:30:37;;;;;;;2.28;0.68;;;11.90;99.90;;;;;;5056832;28;20043;-67
2023/01/03 12:33:15;;;;;;;2.50;0.55;;;11.90;99.90;;;;;;5057518;28;20056;-68
2023/01/03 12:35:52;;;;;;;4.68;0.85;;;11.90;99.90;;;;;;5037278;28;20025;-68
2023/01/03 12:38:22;;;;;;;3.70;0.80;;;11.90;99.90;;;;;;5057092;28;20494;-68
2023/01/03 12:40:55;;;;;;;4.10;0.90;;;11.90;99.90;;;;;;5052874;28;20574;-68
2023/01/03 12:43:32;;;;;;;3.40;0.82;;;11.90;99.90;;;;;;5055861;28;20449;-68
2023/01/03 12:46:10;;;;;;;3.70;0.90;;;11.90;99.90;;;;;;5044620;28;20025;-68
2023/01/03 12:49:05;;;;;;;3.03;0.80;;;11.90;99.90;;;;;;5059422;28;20101;-68
2023/01/03 12:51:31;;;;;;;3.10;0.70;;;11.90;99.90;;;;;;5039527;28;20436;-68
2023/01/03 12:54:24;;;;;;;5.38;1.02;;;11.90;99.90;;;;;;5066699;28;20083;-68
2023/01/03 12:56:58;;;;;;;2.80;0.70;;;11.90;99.90;;;;;;5068723;28;20029;-68
2023/01/03 12:59:42;;;;;;;4.78;1.13;;;12.00;99.90;;;;;;5056196;28;20064;-68
2023/01/03 13:02:30;;;;;;;3.58;0.70;;;12.00;99.90;;;;;;5037993;28;20029;-68
2023/01/03 13:05:11;;;;;;;2.25;0.70;;;12.00;99.90;;;;;;5037482;28;20028;-68
2023/01/03 13:07:39;;;;;;;2.95;0.77;;;12.00;99.90;;;;;;5055171;28;20072;-68
2023/01/03 13:10:11;;;;;;;3.35;1.00;;;12.00;99.90;;;;;;5036991;28;20132;-68
2023/01/03 13:12:39;;;;;;;1.95;0.68;;;12.00;99.90;;;;;;5037179;28;20477;-68
2023/01/03 13:15:32;;;;;;;4.22;0.90;;;12.00;99.90;;;;;;5054738;28;20064;-68
2023/01/03 13:18:19;;;;;;;3.67;0.60;;;12.10;99.90;;;;;;5040199;28;20119;-68
2023/01/03 13:20:46;;;;;;;2.58;0.60;;;12.10;99.90;;;;;;5054996;28;20040;-68
2023/01/03 13:23:35;;;;;;;3.55;0.90;;;12.10;99.90;;;;;;5056708;28;20017;-67
2023/01/03 13:26:04;;;;;;;3.13;0.80;;;12.20;99.90;;;;;;5067711;28;20021;-68
2023/01/03 13:28:38;;;;;;;4.30;0.95;;;12.20;99.90;;;;;;5056563;28;20025;-68
2023/01/03 13:31:13;;;;;;;4.13;1.00;;;12.20;99.90;;;;;;5038113;28;20052;-68
2023/01/03 13:33:50;;;;;;;3.63;0.88;;;12.20;99.90;;;;;;5055928;28;20021;-68
2023/01/03 13:36:17;;;;;;;5.28;1.02;;;12.30;99.90;;;;;;5047309;28;20119;-68
2023/01/03 13:38:42;;;;;;;3.88;0.80;;;12.30;99.90;;;;;;5056185;28;20032;-68
2023/01/03 13:41:35;;;;;;;5.75;0.90;;;12.30;99.90;;;;;;5038638;28;20040;-68
2023/01/03 13:44:16;;;;;;;7.00;1.17;;;12.30;99.90;;;;;;5033773;28;20574;-68
2023/01/03 13:46:42;;;;;;;2.47;0.65;;;12.30;99.90;;;;;;5039909;28;20041;-68
2023/01/03 13:49:20;;;;;;;5.68;1.20;;;12.30;99.90;;;;;;5056969;28;20035;-68
2023/01/03 13:51:49;;;;;;;3.70;0.80;;;12.30;99.90;;;;;;5055821;28;20017;-68
2023/01/03 13:54:14;;;;;;;2.42;0.70;;;12.30;99.90;;;;;;5056195;28;20029;-68
2023/01/03 13:56:43;;;;;;;5.15;0.80;;;12.30;99.90;;;;;;5037790;28;20029;-68
2023/01/03 13:59:17;;;;;;;6.43;0.90;;;12.30;99.90;;;;;;5056088;28;20029;-68
2023/01/03 14:01:55;;;;;;;3.03;1.30;;;12.30;99.90;;;;;;5056717;28;20032;-68
2023/01/03 14:04:30;;;;;;;2.25;0.80;;;12.40;99.90;;;;;;5056913;28;20025;-68
2023/01/03 14:07:14;;;;;;;4.25;0.90;;;12.40;99.90;;;;;;5037630;28;20028;-68
2023/01/03 14:10:04;;;;;;;2.83;0.73;;;12.40;99.90;;;;;;5056470;28;20025;-68
2023/01/03 14:12:54;;;;;;;3.85;0.90;;;12.40;99.90;;;;;;5052910;28;20044;-68
2023/01/03 14:15:24;;;;;;;2.20;0.60;;;12.40;99.90;;;;;;5056153;28;20029;-68
2023/01/03 14:17:56;;;;;;;2.65;0.70;;;12.40;99.90;;;;;;5051112;28;20111;-68
2023/01/03 14:20:27;;;;;;;4.20;0.90;;;12.40;99.90;;;;;;5055557;28;20493;-68